Arvilla, North Dakota
Current Conditions -  °F | °C
As of 2:58 AM on Thursday 27 Nov 2014 (Local Time) from KRDR Reporting Station
Clear Clear  
Wind Chill: -15°   Ceiling: Unl
Heat Index: -15°   Visibility: 10mi
Dew Point: -21°   Wind: 3mph
Humidity: 75%   Direction: 230°SW
Pressure: 30.54"   Gusts: NA
Location:  47.92°N, 97.49°W
Report Text: KRDR 270858Z AUTO 23003KT 10SM CLR M26/M29 A3054 RMK AO2 SLP378 T12611293 57007
Loading
Personal Weather Stations






























Interactive Weather Map New forecast layout! Learn more

10-Day Weather Forecast

Advertisements
Track Severe Weather on mobile